createdAt,value
2017-05-18T00:00:35.779Z,53.81
2017-05-18T00:01:36.400Z,53.72
2017-05-18T00:02:37.017Z,53.91
2017-05-18T00:03:37.628Z,54.00
2017-05-18T00:04:38.283Z,53.91
2017-05-18T00:05:38.894Z,54.29
2017-05-18T00:06:39.509Z,53.91
2017-05-18T00:07:40.125Z,54.77
2017-05-18T00:08:40.744Z,54.57
2017-05-18T00:09:41.356Z,54.57
2017-05-18T00:10:41.976Z,55.05
2017-05-18T00:11:42.673Z,55.34
2017-05-18T00:12:43.295Z,55.05
2017-05-18T00:13:43.909Z,55.15
2017-05-18T00:14:44.522Z,55.24
2017-05-18T00:15:45.138Z,55.05
2017-05-18T00:16:45.802Z,55.34
2017-05-18T00:17:46.417Z,55.43
2017-05-18T00:18:47.038Z,55.53
2017-05-18T00:19:47.651Z,55.43
2017-05-18T00:20:48.302Z,55.34
2017-05-18T00:21:48.919Z,55.34
2017-05-18T00:22:49.533Z,55.62
2017-05-18T00:23:50.182Z,55.24
2017-05-18T00:24:50.797Z,55.62
2017-05-18T00:25:51.410Z,55.82
2017-05-18T00:26:52.084Z,55.82
2017-05-18T00:27:52.726Z,55.53
2017-05-18T00:28:53.341Z,55.62
2017-05-18T00:29:53.955Z,55.24
2017-05-18T00:30:54.607Z,55.62
2017-05-18T00:31:55.219Z,55.24
2017-05-18T00:32:55.831Z,55.15
2017-05-18T00:33:56.447Z,55.43
2017-05-18T00:34:57.064Z,55.05
2017-05-18T00:35:57.679Z,55.82
2017-05-18T00:36:58.293Z,55.62
2017-05-18T00:37:58.925Z,56.48
2017-05-18T00:38:59.524Z,56.10
2017-05-18T00:40:00.146Z,56.29
2017-05-18T00:41:00.757Z,56.10
2017-05-18T00:42:01.405Z,56.48
2017-05-18T00:43:02.025Z,56.29
2017-05-18T00:44:02.640Z,56.29
2017-05-18T00:45:03.260Z,56.01
2017-05-18T00:46:03.873Z,56.38
2017-05-18T00:47:04.487Z,56.29
2017-05-18T00:48:05.108Z,56.29
2017-05-18T00:49:05.726Z,56.29
2017-05-18T00:50:06.337Z,56.48
2017-05-18T00:51:06.951Z,56.20
2017-05-18T00:52:07.655Z,56.38
2017-05-18T00:53:08.269Z,56.29
2017-05-18T00:54:08.890Z,56.67
2017-05-18T00:55:09.502Z,56.58
2017-05-18T00:56:10.117Z,56.55
2017-05-18T00:57:10.781Z,56.84
2017-05-18T00:58:11.401Z,56.67
2017-05-18T00:59:12.048Z,56.55
2017-05-18T01:00:12.665Z,56.65
2017-05-18T01:01:13.281Z,57.31
2017-05-18T01:02:13.947Z,57.31
2017-05-18T01:03:14.562Z,57.03
2017-05-18T01:04:15.178Z,57.12
2017-05-18T01:05:15.793Z,57.03
2017-05-18T01:06:16.412Z,57.03
2017-05-18T01:07:17.032Z,57.03
2017-05-18T01:08:17.644Z,56.84
2017-05-18T01:09:18.291Z,56.93
2017-05-18T01:10:18.908Z,57.31
2017-05-18T01:11:19.555Z,57.41
2017-05-18T01:12:20.172Z,57.31
2017-05-18T01:13:20.827Z,57.22
2017-05-18T01:14:21.476Z,57.41
2017-05-18T01:15:22.092Z,57.12
2017-05-18T01:16:22.708Z,56.96
2017-05-18T01:17:23.320Z,57.06
2017-05-18T01:18:23.934Z,57.06
2017-05-18T01:19:24.549Z,56.87
2017-05-18T01:20:25.165Z,56.87
2017-05-18T01:21:25.777Z,56.77
2017-05-18T01:22:26.425Z,56.87
2017-05-18T01:23:27.024Z,57.12
2017-05-18T01:24:27.670Z,57.06
2017-05-18T01:25:28.316Z,56.84
2017-05-18T01:26:28.961Z,57.31
2017-05-18T01:27:29.530Z,57.70
2017-05-18T01:28:30.146Z,57.22
2017-05-18T01:29:30.764Z,57.41
2017-05-18T01:30:31.375Z,57.60
2017-05-18T01:31:31.989Z,57.89
2017-05-18T01:32:32.604Z,58.46
2017-05-18T01:33:33.220Z,58.26
2017-05-18T01:34:33.833Z,58.36
2017-05-18T01:35:34.449Z,58.36
2017-05-18T01:36:35.067Z,57.98
2017-05-18T01:37:35.683Z,58.07
2017-05-18T01:38:36.308Z,58.36
2017-05-18T01:39:36.947Z,58.36
2017-05-18T01:40:37.549Z,58.36
2017-05-18T01:41:38.166Z,58.07
2017-05-18T01:42:38.814Z,58.36
2017-05-18T01:43:39.430Z,58.26
2017-05-18T01:44:40.044Z,58.26
2017-05-18T01:45:40.661Z,58.26
2017-05-18T01:46:41.275Z,58.26
2017-05-18T01:47:41.939Z,58.26
2017-05-18T01:48:42.553Z,58.26
2017-05-18T01:49:43.168Z,58.07
2017-05-18T01:50:43.808Z,58.17
2017-05-18T01:51:44.411Z,57.98
2017-05-18T01:52:45.100Z,57.79
2017-05-18T01:53:45.703Z,57.89
2017-05-18T01:54:46.316Z,58.26
2017-05-18T01:55:46.930Z,58.17
2017-05-18T01:56:47.545Z,57.60
2017-05-18T01:57:48.235Z,58.17
2017-05-18T01:58:48.871Z,58.26
2017-05-18T01:59:49.468Z,58.36
2017-05-18T02:00:50.111Z,58.17
2017-05-18T02:01:50.738Z,58.36
2017-05-18T02:02:51.338Z,58.46
2017-05-18T02:03:51.953Z,58.07
2017-05-18T02:04:52.591Z,58.36
2017-05-18T02:05:53.194Z,58.07
2017-05-18T02:06:53.811Z,58.07
2017-05-18T02:07:54.458Z,58.17
2017-05-18T02:08:55.072Z,58.26
2017-05-18T02:09:55.712Z,58.65
2017-05-18T02:10:56.357Z,58.52
2017-05-18T02:11:56.973Z,58.62
2017-05-18T02:12:57.590Z,58.33
2017-05-18T02:13:58.203Z,58.52
2017-05-18T02:14:58.816Z,59.00
2017-05-18T02:15:59.430Z,58.81
2017-05-18T02:17:00.046Z,58.81
2017-05-18T02:18:00.709Z,58.72
2017-05-18T02:19:01.323Z,58.81
2017-05-18T02:20:01.938Z,58.81
2017-05-18T02:21:02.580Z,58.81
2017-05-18T02:22:03.207Z,58.52
2017-05-18T02:23:03.879Z,58.91
2017-05-18T02:24:04.480Z,58.91
2017-05-18T02:25:05.119Z,58.72
2017-05-18T02:26:05.725Z,58.91
2017-05-18T02:27:06.365Z,59.00
2017-05-18T02:28:06.980Z,58.91
2017-05-18T02:29:07.594Z,58.62
2017-05-18T02:30:08.208Z,58.72
2017-05-18T02:31:08.873Z,58.72
2017-05-18T02:32:09.440Z,58.81
2017-05-18T02:33:10.053Z,58.43
2017-05-18T02:34:10.667Z,58.62
2017-05-18T02:35:11.284Z,58.62
2017-05-18T02:36:11.910Z,58.81
2017-05-18T02:37:12.510Z,58.43
2017-05-18T02:38:13.156Z,58.72
2017-05-18T02:39:13.833Z,58.36
2017-05-18T02:40:14.431Z,58.81
2017-05-18T02:41:15.046Z,58.91
2017-05-18T02:42:15.662Z,59.00
2017-05-18T02:43:16.277Z,58.81
2017-05-18T02:44:16.921Z,58.81
2017-05-18T02:45:17.522Z,58.81
2017-05-18T02:46:18.133Z,58.24
2017-05-18T02:47:18.778Z,58.72
2017-05-18T02:48:19.392Z,58.81
2017-05-18T02:49:20.007Z,59.00
2017-05-18T02:50:20.624Z,59.19
2017-05-18T02:51:21.299Z,58.52
2017-05-18T02:52:21.931Z,59.09
2017-05-18T02:53:22.531Z,59.00
2017-05-18T02:54:23.142Z,59.48
2017-05-18T02:55:23.757Z,59.38
2017-05-18T02:56:24.403Z,59.67
2017-05-18T02:57:25.026Z,59.64
2017-05-18T02:58:25.874Z,59.45
2017-05-18T02:59:26.492Z,59.74
2017-05-18T03:00:27.102Z,59.57
2017-05-18T03:01:27.743Z,59.45
2017-05-18T03:02:28.379Z,59.92
2017-05-18T03:03:29.075Z,59.45
2017-05-18T03:04:29.689Z,59.54
2017-05-18T03:05:30.303Z,59.38
2017-05-18T03:06:30.943Z,59.67
2017-05-18T03:07:31.547Z,59.48
2017-05-18T03:08:32.193Z,59.54
2017-05-18T03:09:32.789Z,59.57
2017-05-18T03:10:33.403Z,59.57
2017-05-18T03:11:34.016Z,59.86
2017-05-18T03:12:34.658Z,59.28
2017-05-18T03:13:35.257Z,59.48
2017-05-18T03:14:35.871Z,59.48
2017-05-18T03:15:36.485Z,59.28
2017-05-18T03:16:37.098Z,59.28
2017-05-18T03:17:37.739Z,59.38
2017-05-18T03:18:38.541Z,59.48
2017-05-18T03:19:39.183Z,59.57
2017-05-18T03:20:39.809Z,59.48
2017-05-18T03:21:40.410Z,59.57
2017-05-18T03:22:41.054Z,59.76
2017-05-18T03:23:41.735Z,59.76
2017-05-18T03:24:42.383Z,59.76
2017-05-18T03:25:42.997Z,59.95
2017-05-18T03:26:43.609Z,59.67
2017-05-18T03:27:44.257Z,59.57
2017-05-18T03:28:44.851Z,59.76
2017-05-18T03:29:45.490Z,59.48
2017-05-18T03:30:46.090Z,59.57
2017-05-18T03:31:46.702Z,59.38
2017-05-18T03:32:47.345Z,59.76
2017-05-18T03:33:47.975Z,59.95
2017-05-18T03:34:48.571Z,60.05
2017-05-18T03:35:49.185Z,59.95
2017-05-18T03:36:49.800Z,60.14
2017-05-18T03:37:50.439Z,60.14
2017-05-18T03:38:51.341Z,60.33
2017-05-18T03:39:51.956Z,60.52
2017-05-18T03:40:52.596Z,60.24
2017-05-18T03:41:53.202Z,60.43
2017-05-18T03:42:53.809Z,60.52
2017-05-18T03:43:54.423Z,60.43
2017-05-18T03:44:55.067Z,60.52
2017-05-18T03:45:55.665Z,60.52
2017-05-18T03:46:56.281Z,60.33
2017-05-18T03:47:56.899Z,60.33
2017-05-18T03:48:57.516Z,60.43
2017-05-18T03:49:58.126Z,60.24
2017-05-18T03:50:58.740Z,60.33
2017-05-18T03:51:59.358Z,59.95
2017-05-18T03:52:59.973Z,60.05
2017-05-18T03:54:00.586Z,60.33
2017-05-18T03:55:01.208Z,60.43
2017-05-18T03:56:01.825Z,60.43
2017-05-18T03:57:02.441Z,60.52
2017-05-18T03:58:03.059Z,60.33
2017-05-18T03:59:03.720Z,60.33
2017-05-18T04:00:04.334Z,60.43
2017-05-18T04:01:04.948Z,60.52
2017-05-18T04:02:05.567Z,60.43
2017-05-18T04:03:06.182Z,60.33
2017-05-18T04:04:06.800Z,60.52
2017-05-18T04:05:07.414Z,60.81
2017-05-18T04:06:08.027Z,60.52
2017-05-18T04:07:08.675Z,60.81
2017-05-18T04:08:09.290Z,60.52
2017-05-18T04:09:09.961Z,60.62
2017-05-18T04:10:10.578Z,61.10
2017-05-18T04:11:11.193Z,61.00
2017-05-18T04:12:11.809Z,61.10
2017-05-18T04:13:12.429Z,60.72
2017-05-18T04:14:13.048Z,60.72
2017-05-18T04:15:13.666Z,61.00
2017-05-18T04:16:14.281Z,61.10
2017-05-18T04:17:14.896Z,61.10
2017-05-18T04:18:15.511Z,61.10
2017-05-18T04:19:16.175Z,61.29
2017-05-18T04:20:16.790Z,61.10
2017-05-18T04:21:17.404Z,61.10
2017-05-18T04:22:18.026Z,61.29
2017-05-18T04:23:18.644Z,61.10
2017-05-18T04:24:19.310Z,60.81
2017-05-18T04:25:19.922Z,60.91
2017-05-18T04:26:20.537Z,61.00
2017-05-18T04:27:21.151Z,61.00
2017-05-18T04:28:21.798Z,60.81
2017-05-18T04:29:22.446Z,60.91
2017-05-18T04:30:23.065Z,61.29
2017-05-18T04:31:23.677Z,61.67
2017-05-18T04:32:24.300Z,61.29
2017-05-18T04:33:24.918Z,61.10
2017-05-18T04:34:25.572Z,61.29
2017-05-18T04:35:26.183Z,61.38
2017-05-18T04:36:26.831Z,61.29
2017-05-18T04:37:27.451Z,61.29
2017-05-18T04:38:28.064Z,61.19
2017-05-18T04:39:28.729Z,60.91
2017-05-18T04:40:29.349Z,61.10
2017-05-18T04:41:29.961Z,61.19
2017-05-18T04:42:30.576Z,61.29
2017-05-18T04:43:31.240Z,60.91
2017-05-18T04:44:31.886Z,60.91
2017-05-18T04:45:32.508Z,60.75
2017-05-18T04:46:33.120Z,61.10
2017-05-18T04:47:33.736Z,61.13
2017-05-18T04:48:34.353Z,61.04
2017-05-18T04:49:35.017Z,60.84
2017-05-18T04:50:35.633Z,61.22
2017-05-18T04:51:36.248Z,61.04
2017-05-18T04:52:36.867Z,61.04
2017-05-18T04:53:37.481Z,60.94
2017-05-18T04:54:38.148Z,61.13
2017-05-18T04:55:38.763Z,61.32
2017-05-18T04:56:39.382Z,61.22
2017-05-18T04:57:39.996Z,60.55
2017-05-18T04:58:40.646Z,60.94
2017-05-18T04:59:41.264Z,60.84
2017-05-18T05:00:41.884Z,60.65
2017-05-18T05:01:42.503Z,60.65
2017-05-18T05:02:43.123Z,60.55
2017-05-18T05:03:43.733Z,60.84
2017-05-18T05:04:44.381Z,60.46
2017-05-18T05:05:44.995Z,60.75
2017-05-18T05:06:45.611Z,60.55
2017-05-18T05:07:46.224Z,60.46
2017-05-18T05:08:46.841Z,60.65
2017-05-18T05:09:47.460Z,60.75
2017-05-18T05:10:48.076Z,60.75
2017-05-18T05:11:48.696Z,60.55
2017-05-18T05:12:49.315Z,60.84
2017-05-18T05:13:49.931Z,60.55
2017-05-18T05:14:50.544Z,60.55
2017-05-18T05:15:51.194Z,60.65
2017-05-18T05:16:51.811Z,60.55
2017-05-18T05:17:52.427Z,60.55
2017-05-18T05:18:53.040Z,60.84
2017-05-18T05:19:53.705Z,60.75
2017-05-18T05:20:54.326Z,60.55
2017-05-18T05:21:54.945Z,60.65
2017-05-18T05:22:55.560Z,60.65
2017-05-18T05:23:56.174Z,60.75
2017-05-18T05:24:56.846Z,60.84
2017-05-18T05:25:57.459Z,60.65
2017-05-18T05:26:58.079Z,60.55
2017-05-18T05:27:58.694Z,60.46
2017-05-18T05:28:59.311Z,60.55
2017-05-18T05:29:59.976Z,60.46
2017-05-18T05:31:00.590Z,60.46
2017-05-18T05:32:01.205Z,60.75
2017-05-18T05:33:01.826Z,60.55
2017-05-18T05:34:02.447Z,60.75
2017-05-18T05:35:03.109Z,60.55
2017-05-18T05:36:03.758Z,60.27
2017-05-18T05:37:04.407Z,60.27
2017-05-18T05:38:05.056Z,60.17
2017-05-18T05:39:05.677Z,60.55
2017-05-18T05:40:06.346Z,60.36
2017-05-18T05:41:06.958Z,60.27
2017-05-18T05:42:07.577Z,60.55
2017-05-18T05:43:08.196Z,60.84
2017-05-18T05:44:08.847Z,60.65
2017-05-18T05:45:09.466Z,60.84
2017-05-18T05:46:10.117Z,60.65
2017-05-18T05:47:10.729Z,60.65
2017-05-18T05:48:11.351Z,60.75
2017-05-18T05:49:11.962Z,61.04
2017-05-18T05:50:12.582Z,61.32
2017-05-18T05:51:13.192Z,61.13
2017-05-18T05:52:13.811Z,61.04
2017-05-18T05:53:14.425Z,61.13
2017-05-18T05:54:15.045Z,61.04
2017-05-18T05:55:15.658Z,61.22
2017-05-18T05:56:16.305Z,61.22
2017-05-18T05:57:16.920Z,61.04
2017-05-18T05:58:17.541Z,60.94
2017-05-18T05:59:18.154Z,61.04
2017-05-18T06:00:18.768Z,60.94
2017-05-18T06:01:19.417Z,61.13
2017-05-18T06:02:20.032Z,60.94
2017-05-18T06:03:20.648Z,61.16
2017-05-18T06:04:21.265Z,61.22
2017-05-18T06:05:21.936Z,61.07
2017-05-18T06:06:22.559Z,60.87
2017-05-18T06:07:23.166Z,60.58
2017-05-18T06:08:23.784Z,60.68
2017-05-18T06:09:24.406Z,60.65
2017-05-18T06:10:25.022Z,60.94
2017-05-18T06:11:25.639Z,61.07
2017-05-18T06:12:26.256Z,61.07
2017-05-18T06:13:26.876Z,60.87
2017-05-18T06:14:27.495Z,61.07
2017-05-18T06:15:28.163Z,60.87
2017-05-18T06:16:28.779Z,60.87
2017-05-18T06:17:29.402Z,61.16
2017-05-18T06:18:30.019Z,61.16
2017-05-18T06:19:30.639Z,61.07
2017-05-18T06:20:31.309Z,61.25
2017-05-18T06:21:31.924Z,60.97
2017-05-18T06:22:32.543Z,60.68
2017-05-18T06:23:33.160Z,60.65
2017-05-18T06:24:33.778Z,61.22
2017-05-18T06:25:34.447Z,60.94
2017-05-18T06:26:35.078Z,60.75
2017-05-18T06:27:35.719Z,61.41
2017-05-18T06:28:36.344Z,61.22
2017-05-18T06:29:37.007Z,61.32
2017-05-18T06:30:37.629Z,61.22
2017-05-18T06:31:38.243Z,61.70
2017-05-18T06:32:38.862Z,60.94
2017-05-18T06:33:39.480Z,60.94
2017-05-18T06:34:40.130Z,60.94
2017-05-18T06:35:40.755Z,61.04
2017-05-18T06:36:41.374Z,60.94
2017-05-18T06:37:41.990Z,61.22
2017-05-18T06:38:42.652Z,61.22
2017-05-18T06:39:43.262Z,61.35
2017-05-18T06:40:43.879Z,61.44
2017-05-18T06:41:44.497Z,61.07
2017-05-18T06:42:45.147Z,61.35
2017-05-18T06:43:45.764Z,61.35
2017-05-18T06:44:46.381Z,61.44
2017-05-18T06:45:47.050Z,61.07
2017-05-18T06:46:47.666Z,61.44
2017-05-18T06:47:48.292Z,61.35
2017-05-18T06:48:48.905Z,61.25
2017-05-18T06:49:49.524Z,61.35
2017-05-18T06:50:50.194Z,61.25
2017-05-18T06:51:50.813Z,61.54
2017-05-18T06:52:51.431Z,61.44
2017-05-18T06:53:52.049Z,61.63
2017-05-18T06:54:52.671Z,61.73
2017-05-18T06:55:53.335Z,61.83
2017-05-18T06:56:53.953Z,61.92
2017-05-18T06:57:54.568Z,61.73
2017-05-18T06:58:55.195Z,62.02
2017-05-18T06:59:55.810Z,61.73
2017-05-18T07:00:56.477Z,61.73
2017-05-18T07:01:57.095Z,61.83
2017-05-18T07:02:57.723Z,61.25
2017-05-18T07:03:58.340Z,61.92
2017-05-18T07:04:58.955Z,61.73
2017-05-18T07:05:59.571Z,61.54
2017-05-18T07:07:00.202Z,61.73
2017-05-18T07:08:00.816Z,61.63
2017-05-18T07:09:01.433Z,61.83
2017-05-18T07:10:02.052Z,61.92
2017-05-18T07:11:02.669Z,61.92
2017-05-18T07:12:03.292Z,61.83
2017-05-18T07:13:03.908Z,61.83
2017-05-18T07:14:04.525Z,62.21
2017-05-18T07:15:05.150Z,62.49
2017-05-18T07:16:05.814Z,62.11
2017-05-18T07:17:06.433Z,62.21
2017-05-18T07:18:07.056Z,62.02
2017-05-18T07:19:07.678Z,62.68
2017-05-18T07:20:08.291Z,62.49
2017-05-18T07:21:08.958Z,62.49
2017-05-18T07:22:09.578Z,62.40
2017-05-18T07:23:10.195Z,62.21
2017-05-18T07:24:10.812Z,62.21
2017-05-18T07:25:11.429Z,62.11
2017-05-18T07:26:12.129Z,62.40
2017-05-18T07:27:12.749Z,62.49
2017-05-18T07:28:13.366Z,63.00
2017-05-18T07:29:13.983Z,62.88
2017-05-18T07:30:14.602Z,62.68
2017-05-18T07:31:15.274Z,62.88
2017-05-18T07:32:15.892Z,62.59
2017-05-18T07:33:16.514Z,62.49
2017-05-18T07:34:17.128Z,62.49
2017-05-18T07:35:17.746Z,62.68
2017-05-18T07:36:18.362Z,62.21
2017-05-18T07:37:18.982Z,62.78
2017-05-18T07:38:19.603Z,63.07
2017-05-18T07:39:20.222Z,63.07
2017-05-18T07:40:20.842Z,63.07
2017-05-18T07:41:21.456Z,62.91
2017-05-18T07:42:22.075Z,62.91
2017-05-18T07:43:22.693Z,62.81
2017-05-18T07:44:23.310Z,63.00
2017-05-18T07:45:23.958Z,63.20
2017-05-18T07:46:24.577Z,63.10
2017-05-18T07:47:25.196Z,62.81
2017-05-18T07:48:25.818Z,62.62
2017-05-18T07:49:26.469Z,62.43
2017-05-18T07:50:27.089Z,62.84
2017-05-18T07:51:27.708Z,62.55
2017-05-18T07:52:28.328Z,62.18
2017-05-18T07:53:28.943Z,62.37
2017-05-18T07:54:29.561Z,61.89
2017-05-18T07:55:30.179Z,61.98
2017-05-18T07:56:30.798Z,62.08
2017-05-18T07:57:31.416Z,61.60
2017-05-18T07:58:32.034Z,61.82
2017-05-18T07:59:32.650Z,61.54
2017-05-18T08:00:33.267Z,62.21
2017-05-18T08:01:33.888Z,61.72
2017-05-18T08:02:34.511Z,61.63
2017-05-18T08:03:35.133Z,61.25
2017-05-18T08:04:35.755Z,61.25
2017-05-18T08:05:36.373Z,60.96
2017-05-18T08:06:37.074Z,61.35
2017-05-18T08:07:37.693Z,61.82
2017-05-18T08:08:38.343Z,61.72
2017-05-18T08:09:38.963Z,61.44
2017-05-18T08:10:39.583Z,61.72
2017-05-18T08:11:40.198Z,61.44
2017-05-18T08:12:40.823Z,61.16
2017-05-18T08:13:41.443Z,61.06
2017-05-18T08:14:42.061Z,60.96
2017-05-18T08:15:42.678Z,60.87
2017-05-18T08:16:43.347Z,61.16
2017-05-18T08:17:43.965Z,61.16
2017-05-18T08:18:44.582Z,61.16
2017-05-18T08:19:45.201Z,61.06
2017-05-18T08:20:45.820Z,60.96
2017-05-18T08:21:46.438Z,61.25
2017-05-18T08:22:47.057Z,61.16
2017-05-18T08:23:47.674Z,61.25
2017-05-18T08:24:48.294Z,61.06
2017-05-18T08:25:48.912Z,61.25
2017-05-18T08:26:49.584Z,61.82
2017-05-18T08:27:50.201Z,61.72
2017-05-18T08:28:50.818Z,61.54
2017-05-18T08:29:51.444Z,61.92
2017-05-18T08:30:52.059Z,61.57
2017-05-18T08:31:52.729Z,61.47
2017-05-18T08:32:53.382Z,61.19
2017-05-18T08:33:54.000Z,60.80
2017-05-18T08:34:54.619Z,60.87
2017-05-18T08:35:55.241Z,60.90
2017-05-18T08:36:55.906Z,60.77
2017-05-18T08:37:56.530Z,60.30
2017-05-18T08:38:57.146Z,60.87
2017-05-18T08:39:57.764Z,61.44
2017-05-18T08:40:58.383Z,61.06
2017-05-18T08:41:59.002Z,61.06
2017-05-18T08:42:59.622Z,61.35
2017-05-18T08:44:00.241Z,61.06
2017-05-18T08:45:00.865Z,60.87
2017-05-18T08:46:01.486Z,61.03
2017-05-18T08:47:02.108Z,61.51
2017-05-18T08:48:02.724Z,61.51
2017-05-18T08:49:03.343Z,61.41
2017-05-18T08:50:03.963Z,61.22
2017-05-18T08:51:04.585Z,61.41
2017-05-18T08:52:05.203Z,61.89
2017-05-18T08:53:05.820Z,61.98
2017-05-18T08:54:06.437Z,61.79
2017-05-18T08:55:07.056Z,61.60
2017-05-18T08:56:07.674Z,61.79
2017-05-18T08:57:08.293Z,61.51
2017-05-18T08:58:08.910Z,61.89
2017-05-18T08:59:09.530Z,61.79
2017-05-18T09:00:10.148Z,61.60
2017-05-18T09:01:10.765Z,61.44
2017-05-18T09:02:11.383Z,61.44
2017-05-18T09:03:12.019Z,60.96
2017-05-18T09:04:12.653Z,61.35
2017-05-18T09:05:13.274Z,61.51
2017-05-18T09:06:13.898Z,61.22
2017-05-18T09:07:14.518Z,61.41
2017-05-18T09:08:15.134Z,61.60
2017-05-18T09:09:15.753Z,61.63
2017-05-18T09:10:16.373Z,61.72
2017-05-18T09:11:16.991Z,61.44
2017-05-18T09:12:17.643Z,61.54
2017-05-18T09:13:18.260Z,61.44
2017-05-18T09:14:18.877Z,61.54
2017-05-18T09:15:19.501Z,61.16
2017-05-18T09:16:20.118Z,61.63
2017-05-18T09:17:20.736Z,61.16
2017-05-18T09:18:21.354Z,61.06
2017-05-18T09:19:21.975Z,61.44
2017-05-18T09:20:22.593Z,61.35
2017-05-18T09:21:23.210Z,61.35
2017-05-18T09:22:23.880Z,61.63
2017-05-18T09:23:24.500Z,61.54
2017-05-18T09:24:25.123Z,61.44
2017-05-18T09:25:25.773Z,61.54
2017-05-18T09:26:26.392Z,61.92
2017-05-18T09:27:27.062Z,61.72
2017-05-18T09:28:27.685Z,61.63
2017-05-18T09:29:28.301Z,61.92
2017-05-18T09:30:28.919Z,61.72
2017-05-18T09:31:29.539Z,61.92
2017-05-18T09:32:30.158Z,61.63
2017-05-18T09:33:30.776Z,61.76
2017-05-18T09:34:31.396Z,61.72
2017-05-18T09:35:32.019Z,61.85
2017-05-18T09:36:32.636Z,62.14
2017-05-18T09:37:33.262Z,61.95
2017-05-18T09:38:33.918Z,61.38
2017-05-18T09:39:34.536Z,61.47
2017-05-18T09:40:35.154Z,61.57
2017-05-18T09:41:35.774Z,61.76
2017-05-18T09:42:36.443Z,60.80
2017-05-18T09:43:37.062Z,61.16
2017-05-18T09:44:37.686Z,61.54
2017-05-18T09:45:38.301Z,61.35
2017-05-18T09:46:38.927Z,61.44
2017-05-18T09:47:39.592Z,61.92
2017-05-18T09:48:40.241Z,62.04
2017-05-18T09:49:40.867Z,61.85
2017-05-18T09:50:41.482Z,61.95
2017-05-18T09:51:42.101Z,61.47
2017-05-18T09:52:42.778Z,61.47
2017-05-18T09:53:43.428Z,61.57
2017-05-18T09:54:44.048Z,61.57
2017-05-18T09:55:44.666Z,61.63
2017-05-18T09:56:45.291Z,61.95
2017-05-18T09:57:45.958Z,61.66
2017-05-18T09:58:46.583Z,61.57
2017-05-18T09:59:47.199Z,61.76
2017-05-18T10:00:47.823Z,61.76
2017-05-18T10:01:48.440Z,61.76
2017-05-18T10:02:49.058Z,61.19
2017-05-18T10:03:49.679Z,61.19
2017-05-18T10:04:50.330Z,61.38
2017-05-18T10:05:50.954Z,61.38
2017-05-18T10:06:51.569Z,61.47
2017-05-18T10:07:52.189Z,61.28
2017-05-18T10:08:52.811Z,61.19
2017-05-18T10:09:53.430Z,61.76
2017-05-18T10:10:54.049Z,61.19
2017-05-18T10:11:54.668Z,60.90
2017-05-18T10:12:55.343Z,60.80
2017-05-18T10:13:55.961Z,60.42
2017-05-18T10:14:56.579Z,61.38
2017-05-18T10:15:57.198Z,61.38
2017-05-18T10:16:57.822Z,61.25
2017-05-18T10:17:58.490Z,61.06
2017-05-18T10:18:59.110Z,61.16
2017-05-18T10:19:59.728Z,61.44
2017-05-18T10:21:00.347Z,61.63
2017-05-18T10:22:00.967Z,61.44
2017-05-18T10:23:01.637Z,61.41
2017-05-18T10:24:02.255Z,61.51
2017-05-18T10:25:02.873Z,61.60
2017-05-18T10:26:03.495Z,61.79
2017-05-18T10:27:04.115Z,61.89
2017-05-18T10:28:04.732Z,61.98
2017-05-18T10:29:05.352Z,61.72
2017-05-18T10:30:06.004Z,61.92
2017-05-18T10:31:06.626Z,61.54
2017-05-18T10:32:07.241Z,62.01
2017-05-18T10:33:07.912Z,61.82
2017-05-18T10:34:08.537Z,62.01
2017-05-18T10:35:09.158Z,62.01
2017-05-18T10:36:09.777Z,62.11
2017-05-18T10:37:10.428Z,62.01
2017-05-18T10:38:11.129Z,61.44
2017-05-18T10:39:11.750Z,61.25
2017-05-18T10:40:12.378Z,61.35
2017-05-18T10:41:12.996Z,61.35
2017-05-18T10:42:13.612Z,61.44
2017-05-18T10:43:14.235Z,61.35
2017-05-18T10:44:14.850Z,61.35
2017-05-18T10:45:15.477Z,61.35
2017-05-18T10:46:16.127Z,61.44
2017-05-18T10:47:16.751Z,60.96
2017-05-18T10:48:17.418Z,61.09
2017-05-18T10:49:18.038Z,60.90
2017-05-18T10:50:18.657Z,61.09
2017-05-18T10:51:19.281Z,60.99
2017-05-18T10:52:19.898Z,60.42
2017-05-18T10:53:20.520Z,60.52
2017-05-18T10:54:21.138Z,60.33
2017-05-18T10:55:21.758Z,60.71
2017-05-18T10:56:22.376Z,60.61
2017-05-18T10:57:23.010Z,60.52
2017-05-18T10:58:23.615Z,60.90
2017-05-18T10:59:24.239Z,60.80
2017-05-18T11:00:24.891Z,60.80
2017-05-18T11:01:25.510Z,60.71
2017-05-18T11:02:26.160Z,60.71
2017-05-18T11:03:26.830Z,60.80
2017-05-18T11:04:27.453Z,61.28
2017-05-18T11:05:28.073Z,61.09
2017-05-18T11:06:28.690Z,61.09
2017-05-18T11:07:29.313Z,61.19
2017-05-18T11:08:29.932Z,60.90
2017-05-18T11:09:30.547Z,61.12
2017-05-18T11:10:31.168Z,60.93
2017-05-18T11:11:31.785Z,60.93
2017-05-18T11:12:32.406Z,60.93
2017-05-18T11:13:33.074Z,60.83
2017-05-18T11:14:33.694Z,60.83
2017-05-18T11:15:34.314Z,60.64
2017-05-18T11:16:34.940Z,60.93
2017-05-18T11:17:35.560Z,60.04
2017-05-18T11:18:36.177Z,61.09
2017-05-18T11:19:36.795Z,61.28
2017-05-18T11:20:37.417Z,61.38
2017-05-18T11:21:38.034Z,61.38
2017-05-18T11:22:38.661Z,61.19
2017-05-18T11:23:39.276Z,61.57
2017-05-18T11:24:39.896Z,61.47
2017-05-18T11:25:40.515Z,60.90
2017-05-18T11:26:41.140Z,61.28
2017-05-18T11:27:41.756Z,62.04
2017-05-18T11:28:42.425Z,61.66
2017-05-18T11:29:43.052Z,61.57
2017-05-18T11:30:43.705Z,61.57
2017-05-18T11:31:44.322Z,61.66
2017-05-18T11:32:44.944Z,61.57
2017-05-18T11:33:45.561Z,61.63
2017-05-18T11:34:46.178Z,61.85
2017-05-18T11:35:46.799Z,61.72
2017-05-18T11:36:47.424Z,61.92
2017-05-18T11:37:48.046Z,62.43
2017-05-18T11:38:48.690Z,62.62
2017-05-18T11:39:49.343Z,61.85
2017-05-18T11:40:49.996Z,61.95
2017-05-18T11:41:50.614Z,61.57
2017-05-18T11:42:51.232Z,60.99
2017-05-18T11:43:51.901Z,61.31
2017-05-18T11:44:52.523Z,60.83
2017-05-18T11:45:53.146Z,61.12
2017-05-18T11:46:53.763Z,61.31
2017-05-18T11:47:54.381Z,60.74
2017-05-18T11:48:54.999Z,60.35
2017-05-18T11:49:55.620Z,60.16
2017-05-18T11:50:56.244Z,59.59
2017-05-18T11:51:56.865Z,60.83
2017-05-18T11:52:57.483Z,60.93
2017-05-18T11:53:58.152Z,60.45
2017-05-18T11:54:58.771Z,60.35
2017-05-18T11:55:59.390Z,59.88
2017-05-18T11:57:00.010Z,59.30
2017-05-18T11:58:00.629Z,59.69
2017-05-18T11:59:01.248Z,60.06
2017-05-18T12:00:01.873Z,59.78
2017-05-18T12:01:02.488Z,59.69
2017-05-18T12:02:03.139Z,59.69
2017-05-18T12:03:03.760Z,59.88
2017-05-18T12:04:04.377Z,59.69
2017-05-18T12:05:04.996Z,59.88
2017-05-18T12:06:05.617Z,59.59
2017-05-18T12:07:06.238Z,59.69
2017-05-18T12:08:06.859Z,59.30
2017-05-18T12:09:07.511Z,58.98
2017-05-18T12:10:08.132Z,59.08
2017-05-18T12:11:08.753Z,59.37
2017-05-18T12:12:09.368Z,59.56
2017-05-18T12:13:09.989Z,59.56
2017-05-18T12:14:10.608Z,60.04
2017-05-18T12:15:11.227Z,59.56
2017-05-18T12:16:11.847Z,59.49
2017-05-18T12:17:12.465Z,59.40
2017-05-18T12:18:13.085Z,59.01
2017-05-18T12:19:13.762Z,59.01
2017-05-18T12:20:14.378Z,58.63
2017-05-18T12:21:14.997Z,58.73
2017-05-18T12:22:15.619Z,58.73
2017-05-18T12:23:16.239Z,59.30
2017-05-18T12:24:16.857Z,58.83
2017-05-18T12:25:17.477Z,58.83
2017-05-18T12:26:18.096Z,58.83
2017-05-18T12:27:18.714Z,58.54
2017-05-18T12:28:19.342Z,58.06
2017-05-18T12:29:19.958Z,57.68
2017-05-18T12:30:20.584Z,57.68
2017-05-18T12:31:21.205Z,57.97
2017-05-18T12:32:21.823Z,58.34
2017-05-18T12:33:22.443Z,58.44
2017-05-18T12:34:23.147Z,58.18
2017-05-18T12:35:23.766Z,58.47
2017-05-18T12:36:24.387Z,57.90
2017-05-18T12:37:25.005Z,57.99
2017-05-18T12:38:25.626Z,57.61
2017-05-18T12:39:26.245Z,57.23
2017-05-18T12:40:26.866Z,57.32
2017-05-18T12:41:27.484Z,57.13
2017-05-18T12:42:28.136Z,56.56
2017-05-18T12:43:28.757Z,56.94
2017-05-18T12:44:29.381Z,56.37
2017-05-18T12:45:30.005Z,56.56
2017-05-18T12:46:30.628Z,57.04
2017-05-18T12:47:31.245Z,56.94
2017-05-18T12:48:31.864Z,57.04
2017-05-18T12:49:32.833Z,56.84
2017-05-18T12:50:33.493Z,56.75
2017-05-18T12:51:34.110Z,57.04
2017-05-18T12:52:34.730Z,56.75
2017-05-18T12:53:35.355Z,56.56
2017-05-18T12:54:35.975Z,56.37
2017-05-18T12:55:36.594Z,56.08
2017-05-18T12:56:37.214Z,56.27
2017-05-18T12:57:37.839Z,56.46
2017-05-18T12:58:38.455Z,56.53
2017-05-18T12:59:39.126Z,56.82
2017-05-18T13:00:39.781Z,56.34